Artemus, Kentucky
Current Conditions -  °F | °C
As of 7:15 AM on Friday 21 Nov 2014 (Local Time) from K1A6 Reporting Station
Clear Clear  
Wind Chill: 21°   Ceiling: Unl
Heat Index: 21°   Visibility: 10mi
Dew Point: 19°   Wind: 0mph
Humidity: 91%   Direction: NA
Pressure: 30.43"   Gusts: NA
Location:  36.83°N, 83.84°W
Report Text: K1A6 211215Z AUTO 00000KT 10SM CLR M06/M07 A3043 RMK AO2 T10601072
Loading
Personal Weather Stations






























Interactive Weather Map New forecast layout! Learn more

10-Day Weather Forecast

Advertisements
Track Severe Weather on mobile